sensor_id;sensor_type;location;lat;lon;timestamp;temperature;humidity
37268;DHT22;23154;52.542;13.362;2022-08-11T00:01:54;18.80;99.90
37268;DHT22;23154;52.542;13.362;2022-08-11T00:04:23;18.70;99.90
37268;DHT22;23154;52.542;13.362;2022-08-11T00:06:50;18.80;99.90
37268;DHT22;23154;52.542;13.362;2022-08-11T00:09:22;18.70;99.90
37268;DHT22;23154;52.542;13.362;2022-08-11T00:11:57;18.60;99.90
37268;DHT22;23154;52.542;13.362;2022-08-11T00:14:27;18.50;99.90
37268;DHT22;23154;52.542;13.362;2022-08-11T00:17:02;18.60;99.90
37268;DHT22;23154;52.542;13.362;2022-08-11T00:19:34;18.40;99.90
37268;DHT22;23154;52.542;13.362;2022-08-11T00:22:02;18.40;99.90
37268;DHT22;23154;52.542;13.362;2022-08-11T00:24:33;18.40;99.90
37268;DHT22;23154;52.542;13.362;2022-08-11T00:26:59;18.40;99.90
37268;DHT22;23154;52.542;13.362;2022-08-11T00:29:25;18.40;99.90
37268;DHT22;23154;52.542;13.362;2022-08-11T00:31:53;18.30;99.90
37268;DHT22;23154;52.542;13.362;2022-08-11T00:37:25;18.30;99.90
37268;DHT22;23154;52.542;13.362;2022-08-11T00:39:54;18.30;99.90
37268;DHT22;23154;52.542;13.362;2022-08-11T00:45:08;18.20;99.90
37268;DHT22;23154;52.542;13.362;2022-08-11T00:53:38;18.20;99.90
37268;DHT22;23154;52.542;13.362;2022-08-11T01:01:58;18.10;99.90
37268;DHT22;23154;52.542;13.362;2022-08-11T01:40:48;17.60;99.90
37268;DHT22;23154;52.542;13.362;2022-08-11T01:54:55;17.40;99.90
37268;DHT22;23154;52.542;13.362;2022-08-11T02:00:14;17.50;99.90
37268;DHT22;23154;52.542;13.362;2022-08-11T02:08:48;17.40;99.90
37268;DHT22;23154;52.542;13.362;2022-08-11T02:11:30;17.40;99.90
37268;DHT22;23154;52.542;13.362;2022-08-11T02:22:47;17.50;99.90
37268;DHT22;23154;52.542;13.362;2022-08-11T02:30:52;17.20;99.90
37268;DHT22;23154;52.542;13.362;2022-08-11T02:33:43;17.10;99.90
37268;DHT22;23154;52.542;13.362;2022-08-11T02:36:24;17.10;99.90
37268;DHT22;23154;52.542;13.362;2022-08-11T02:39:01;17.20;99.90
37268;DHT22;23154;52.542;13.362;2022-08-11T02:50:39;17.10;99.90
37268;DHT22;23154;52.542;13.362;2022-08-11T02:53:28;17.10;99.90
37268;DHT22;23154;52.542;13.362;2022-08-11T02:56:26;17.10;99.90
37268;DHT22;23154;52.542;13.362;2022-08-11T02:59:06;17.20;99.90
37268;DHT22;23154;52.542;13.362;2022-08-11T03:02:10;17.10;99.90
37268;DHT22;23154;52.542;13.362;2022-08-11T03:13:28;17.10;99.90
37268;DHT22;23154;52.542;13.362;2022-08-11T03:19:21;17.10;99.90
37268;DHT22;23154;52.542;13.362;2022-08-11T03:27:36;17.10;99.90
37268;DHT22;23154;52.542;13.362;2022-08-11T03:30:18;17.00;99.90
37268;DHT22;23154;52.542;13.362;2022-08-11T03:41:37;17.00;99.90
37268;DHT22;23154;52.542;13.362;2022-08-11T03:47:59;17.00;99.90
37268;DHT22;23154;52.542;13.362;2022-08-11T03:50:27;16.90;99.90
37268;DHT22;23154;52.542;13.362;2022-08-11T03:53:13;16.90;99.90
37268;DHT22;23154;52.542;13.362;2022-08-11T04:01:36;16.90;99.90
37268;DHT22;23154;52.542;13.362;2022-08-11T04:04:23;16.90;99.90
37268;DHT22;23154;52.542;13.362;2022-08-11T04:18:43;17.20;99.90
37268;DHT22;23154;52.542;13.362;2022-08-11T04:41:24;17.50;99.90
37268;DHT22;23154;52.542;13.362;2022-08-11T04:44:33;17.50;99.90
37268;DHT22;23154;52.542;13.362;2022-08-11T04:47:32;17.50;99.90
37268;DHT22;23154;52.542;13.362;2022-08-11T04:53:35;17.70;99.90
37268;DHT22;23154;52.542;13.362;2022-08-11T04:56:27;17.70;99.90
37268;DHT22;23154;52.542;13.362;2022-08-11T05:09:18;18.10;99.90
37268;DHT22;23154;52.542;13.362;2022-08-11T05:12:15;18.20;99.90
37268;DHT22;23154;52.542;13.362;2022-08-11T05:14:48;18.30;99.90
37268;DHT22;23154;52.542;13.362;2022-08-11T05:17:43;18.30;99.90
37268;DHT22;23154;52.542;13.362;2022-08-11T05:20:29;18.40;99.90
37268;DHT22;23154;52.542;13.362;2022-08-11T05:23:14;18.50;99.90
37268;DHT22;23154;52.542;13.362;2022-08-11T05:26:01;18.60;99.90
37268;DHT22;23154;52.542;13.362;2022-08-11T05:28:54;18.70;99.90
37268;DHT22;23154;52.542;13.362;2022-08-11T05:31:42;18.80;99.90
37268;DHT22;23154;52.542;13.362;2022-08-11T05:34:43;18.90;99.90
37268;DHT22;23154;52.542;13.362;2022-08-11T05:37:32;19.00;99.90
37268;DHT22;23154;52.542;13.362;2022-08-11T05:40:10;19.10;99.90
37268;DHT22;23154;52.542;13.362;2022-08-11T05:43:00;19.20;99.90
37268;DHT22;23154;52.542;13.362;2022-08-11T05:45:58;19.30;99.90
37268;DHT22;23154;52.542;13.362;2022-08-11T05:48:44;19.40;99.90
37268;DHT22;23154;52.542;13.362;2022-08-11T05:51:39;19.50;99.90
37268;DHT22;23154;52.542;13.362;2022-08-11T05:54:26;19.60;99.90
37268;DHT22;23154;52.542;13.362;2022-08-11T05:57:19;19.70;99.90
37268;DHT22;23154;52.542;13.362;2022-08-11T05:59:46;19.80;99.90
37268;DHT22;23154;52.542;13.362;2022-08-11T06:02:14;19.80;99.90
37268;DHT22;23154;52.542;13.362;2022-08-11T06:04:40;19.90;99.90
37268;DHT22;23154;52.542;13.362;2022-08-11T06:07:11;20.00;99.90
37268;DHT22;23154;52.542;13.362;2022-08-11T06:15:10;20.30;99.90
37268;DHT22;23154;52.542;13.362;2022-08-11T06:17:42;20.40;99.90
37268;DHT22;23154;52.542;13.362;2022-08-11T06:20:10;20.50;99.90
37268;DHT22;23154;52.542;13.362;2022-08-11T06:22:38;20.50;99.90
37268;DHT22;23154;52.542;13.362;2022-08-11T06:25:05;20.50;99.90
37268;DHT22;23154;52.542;13.362;2022-08-11T06:27:34;20.60;99.90
37268;DHT22;23154;52.542;13.362;2022-08-11T06:30:01;20.70;99.90
37268;DHT22;23154;52.542;13.362;2022-08-11T06:32:34;20.80;99.90
37268;DHT22;23154;52.542;13.362;2022-08-11T06:37:39;21.00;99.90
37268;DHT22;23154;52.542;13.362;2022-08-11T06:42:55;21.10;99.90
37268;DHT22;23154;52.542;13.362;2022-08-11T06:48:06;21.20;99.90
37268;DHT22;23154;52.542;13.362;2022-08-11T06:50:40;21.30;99.90
37268;DHT22;23154;52.542;13.362;2022-08-11T06:53:24;21.30;99.90
37268;DHT22;23154;52.542;13.362;2022-08-11T06:55:50;21.40;99.90
37268;DHT22;23154;52.542;13.362;2022-08-11T06:58:37;21.50;99.90
37268;DHT22;23154;52.542;13.362;2022-08-11T07:01:33;21.60;99.90
37268;DHT22;23154;52.542;13.362;2022-08-11T07:04:07;21.70;99.90
37268;DHT22;23154;52.542;13.362;2022-08-11T07:06:48;21.80;99.90
37268;DHT22;23154;52.542;13.362;2022-08-11T07:12:49;21.90;99.60
37268;DHT22;23154;52.542;13.362;2022-08-11T07:15:36;22.00;99.00
37268;DHT22;23154;52.542;13.362;2022-08-11T07:18:06;22.10;98.80
37268;DHT22;23154;52.542;13.362;2022-08-11T07:20:53;22.10;98.40
37268;DHT22;23154;52.542;13.362;2022-08-11T07:23:39;22.20;98.20
37268;DHT22;23154;52.542;13.362;2022-08-11T07:26:25;22.30;97.90
37268;DHT22;23154;52.542;13.362;2022-08-11T07:29:11;22.40;97.40
37268;DHT22;23154;52.542;13.362;2022-08-11T07:31:45;22.50;97.20
37268;DHT22;23154;52.542;13.362;2022-08-11T07:34:22;22.60;97.50
37268;DHT22;23154;52.542;13.362;2022-08-11T07:36:57;22.80;96.70
37268;DHT22;23154;52.542;13.362;2022-08-11T07:39:27;22.80;95.80
37268;DHT22;23154;52.542;13.362;2022-08-11T07:41:57;23.00;95.70
37268;DHT22;23154;52.542;13.362;2022-08-11T07:44:27;23.00;95.60
37268;DHT22;23154;52.542;13.362;2022-08-11T07:46:56;23.00;95.30
37268;DHT22;23154;52.542;13.362;2022-08-11T07:49:44;23.10;95.40
37268;DHT22;23154;52.542;13.362;2022-08-11T07:52:29;23.20;94.60
37268;DHT22;23154;52.542;13.362;2022-08-11T07:57:25;23.40;94.70
37268;DHT22;23154;52.542;13.362;2022-08-11T08:00:11;23.50;93.80
37268;DHT22;23154;52.542;13.362;2022-08-11T08:02:58;23.50;93.40
37268;DHT22;23154;52.542;13.362;2022-08-11T08:05:46;23.50;93.40
37268;DHT22;23154;52.542;13.362;2022-08-11T08:08:30;23.70;94.10
37268;DHT22;23154;52.542;13.362;2022-08-11T08:11:15;23.80;93.50
37268;DHT22;23154;52.542;13.362;2022-08-11T08:14:02;24.00;92.50
37268;DHT22;23154;52.542;13.362;2022-08-11T08:16:47;24.10;92.30
37268;DHT22;23154;52.542;13.362;2022-08-11T08:19:32;24.10;91.40
37268;DHT22;23154;52.542;13.362;2022-08-11T08:21:58;24.10;91.80
37268;DHT22;23154;52.542;13.362;2022-08-11T08:24:24;24.20;91.10
37268;DHT22;23154;52.542;13.362;2022-08-11T08:26:50;24.30;90.80
37268;DHT22;23154;52.542;13.362;2022-08-11T08:29:31;24.40;90.00
37268;DHT22;23154;52.542;13.362;2022-08-11T08:32:17;24.40;89.50
37268;DHT22;23154;52.542;13.362;2022-08-11T08:34:45;24.40;89.10
37268;DHT22;23154;52.542;13.362;2022-08-11T08:37:12;24.60;89.40
37268;DHT22;23154;52.542;13.362;2022-08-11T08:39:38;24.70;87.80
37268;DHT22;23154;52.542;13.362;2022-08-11T08:42:12;24.80;86.30
37268;DHT22;23154;52.542;13.362;2022-08-11T08:44:41;24.80;87.50
37268;DHT22;23154;52.542;13.362;2022-08-11T08:47:15;24.70;87.20
37268;DHT22;23154;52.542;13.362;2022-08-11T08:49:48;24.90;85.70
37268;DHT22;23154;52.542;13.362;2022-08-11T08:52:20;24.90;85.50
37268;DHT22;23154;52.542;13.362;2022-08-11T08:54:50;25.00;84.00
37268;DHT22;23154;52.542;13.362;2022-08-11T08:57:23;25.10;83.90
37268;DHT22;23154;52.542;13.362;2022-08-11T08:59:52;25.10;80.80
37268;DHT22;23154;52.542;13.362;2022-08-11T09:02:22;25.30;81.00
37268;DHT22;23154;52.542;13.362;2022-08-11T09:04:49;25.40;81.20
37268;DHT22;23154;52.542;13.362;2022-08-11T09:07:17;25.60;80.10
37268;DHT22;23154;52.542;13.362;2022-08-11T09:09:46;25.70;79.30
37268;DHT22;23154;52.542;13.362;2022-08-11T09:12:14;25.60;79.00
37268;DHT22;23154;52.542;13.362;2022-08-11T09:14:42;25.70;77.50
37268;DHT22;23154;52.542;13.362;2022-08-11T09:17:45;25.60;77.20
37268;DHT22;23154;52.542;13.362;2022-08-11T09:20:21;25.80;77.80
37268;DHT22;23154;52.542;13.362;2022-08-11T09:22:50;25.80;77.10
37268;DHT22;23154;52.542;13.362;2022-08-11T09:25:34;25.80;79.50
37268;DHT22;23154;52.542;13.362;2022-08-11T09:28:21;26.10;77.10
37268;DHT22;23154;52.542;13.362;2022-08-11T09:30:51;26.10;75.30
37268;DHT22;23154;52.542;13.362;2022-08-11T09:33:21;26.20;75.00
37268;DHT22;23154;52.542;13.362;2022-08-11T09:35:51;26.20;74.30
37268;DHT22;23154;52.542;13.362;2022-08-11T09:38:19;26.10;73.10
37268;DHT22;23154;52.542;13.362;2022-08-11T09:41:06;26.10;73.70
37268;DHT22;23154;52.542;13.362;2022-08-11T09:43:35;26.20;73.80
37268;DHT22;23154;52.542;13.362;2022-08-11T09:46:25;26.40;73.40
37268;DHT22;23154;52.542;13.362;2022-08-11T09:48:53;26.50;73.00
37268;DHT22;23154;52.542;13.362;2022-08-11T09:51:22;26.50;73.50
37268;DHT22;23154;52.542;13.362;2022-08-11T09:53:48;26.70;73.00
37268;DHT22;23154;52.542;13.362;2022-08-11T09:56:21;26.70;73.30
37268;DHT22;23154;52.542;13.362;2022-08-11T09:59:07;26.80;71.50
37268;DHT22;23154;52.542;13.362;2022-08-11T10:01:55;26.80;70.20
37268;DHT22;23154;52.542;13.362;2022-08-11T10:07:00;27.00;70.00
37268;DHT22;23154;52.542;13.362;2022-08-11T10:12:08;27.30;69.20
37268;DHT22;23154;52.542;13.362;2022-08-11T10:14:43;27.40;68.60
37268;DHT22;23154;52.542;13.362;2022-08-11T10:17:32;27.40;68.30
37268;DHT22;23154;52.542;13.362;2022-08-11T10:19:58;27.50;68.50
37268;DHT22;23154;52.542;13.362;2022-08-11T10:22:27;27.50;69.10
37268;DHT22;23154;52.542;13.362;2022-08-11T10:25:14;27.30;68.00
37268;DHT22;23154;52.542;13.362;2022-08-11T10:27:59;27.30;67.50
37268;DHT22;23154;52.542;13.362;2022-08-11T10:30:28;27.10;67.90
37268;DHT22;23154;52.542;13.362;2022-08-11T10:33:12;27.10;68.80
37268;DHT22;23154;52.542;13.362;2022-08-11T10:36:02;27.30;68.20
37268;DHT22;23154;52.542;13.362;2022-08-11T10:38:30;27.40;67.40
37268;DHT22;23154;52.542;13.362;2022-08-11T10:40:56;27.80;67.10
37268;DHT22;23154;52.542;13.362;2022-08-11T10:43:42;27.70;67.60
37268;DHT22;23154;52.542;13.362;2022-08-11T10:46:11;27.90;64.50
37268;DHT22;23154;52.542;13.362;2022-08-11T10:48:57;27.90;64.20
37268;DHT22;23154;52.542;13.362;2022-08-11T10:51:26;27.70;63.80
37268;DHT22;23154;52.542;13.362;2022-08-11T10:54:10;27.70;63.70
37268;DHT22;23154;52.542;13.362;2022-08-11T10:56:55;27.50;63.00
37268;DHT22;23154;52.542;13.362;2022-08-11T10:59:40;27.60;63.40
37268;DHT22;23154;52.542;13.362;2022-08-11T11:02:12;27.80;63.00
37268;DHT22;23154;52.542;13.362;2022-08-11T11:07:21;27.70;63.70
37268;DHT22;23154;52.542;13.362;2022-08-11T11:10:01;28.00;62.30
37268;DHT22;23154;52.542;13.362;2022-08-11T11:12:33;28.00;61.70
37268;DHT22;23154;52.542;13.362;2022-08-11T11:15:20;28.10;61.60
37268;DHT22;23154;52.542;13.362;2022-08-11T11:18:20;28.20;61.30
37268;DHT22;23154;52.542;13.362;2022-08-11T11:20:56;28.20;61.20
37268;DHT22;23154;52.542;13.362;2022-08-11T11:26:34;28.00;61.20
37268;DHT22;23154;52.542;13.362;2022-08-11T11:35:43;28.40;61.40
37268;DHT22;23154;52.542;13.362;2022-08-11T11:37:52;28.60;60.00
37268;DHT22;23154;52.542;13.362;2022-08-11T11:40:19;28.40;60.00
37268;DHT22;23154;52.542;13.362;2022-08-11T11:42:48;28.40;60.10
37268;DHT22;23154;52.542;13.362;2022-08-11T11:45:16;28.50;59.90
37268;DHT22;23154;52.542;13.362;2022-08-11T11:47:42;28.60;59.70
37268;DHT22;23154;52.542;13.362;2022-08-11T11:50:12;28.70;59.30
37268;DHT22;23154;52.542;13.362;2022-08-11T11:52:38;28.70;58.90
37268;DHT22;23154;52.542;13.362;2022-08-11T11:55:05;28.60;59.00
37268;DHT22;23154;52.542;13.362;2022-08-11T11:57:32;28.50;59.50
37268;DHT22;23154;52.542;13.362;2022-08-11T12:00:18;28.70;59.30
37268;DHT22;23154;52.542;13.362;2022-08-11T12:03:07;28.90;58.70
37268;DHT22;23154;52.542;13.362;2022-08-11T12:05:36;28.80;59.10
37268;DHT22;23154;52.542;13.362;2022-08-11T12:08:03;29.20;59.20
37268;DHT22;23154;52.542;13.362;2022-08-11T12:11:02;29.40;58.20
37268;DHT22;23154;52.542;13.362;2022-08-11T12:13:49;29.20;57.70
37268;DHT22;23154;52.542;13.362;2022-08-11T12:16:18;29.00;57.70
37268;DHT22;23154;52.542;13.362;2022-08-11T12:18:45;28.80;58.30
37268;DHT22;23154;52.542;13.362;2022-08-11T12:21:14;29.00;58.10
37268;DHT22;23154;52.542;13.362;2022-08-11T12:23:42;28.80;58.10
37268;DHT22;23154;52.542;13.362;2022-08-11T12:26:28;28.50;58.80
37268;DHT22;23154;52.542;13.362;2022-08-11T12:29:13;28.70;59.90
37268;DHT22;23154;52.542;13.362;2022-08-11T12:31:41;28.80;59.00
37268;DHT22;23154;52.542;13.362;2022-08-11T12:34:10;29.00;59.40
37268;DHT22;23154;52.542;13.362;2022-08-11T12:36:39;29.20;58.10
37268;DHT22;23154;52.542;13.362;2022-08-11T12:39:11;28.90;57.30
37268;DHT22;23154;52.542;13.362;2022-08-11T12:41:37;28.90;56.70
37268;DHT22;23154;52.542;13.362;2022-08-11T12:44:26;28.90;58.70
37268;DHT22;23154;52.542;13.362;2022-08-11T12:47:15;29.10;57.70
37268;DHT22;23154;52.542;13.362;2022-08-11T12:49:47;29.20;57.10
37268;DHT22;23154;52.542;13.362;2022-08-11T12:52:44;29.40;57.60
37268;DHT22;23154;52.542;13.362;2022-08-11T12:55:19;29.20;57.10
37268;DHT22;23154;52.542;13.362;2022-08-11T12:58:09;29.20;56.90
37268;DHT22;23154;52.542;13.362;2022-08-11T13:00:44;29.00;56.60
37268;DHT22;23154;52.542;13.362;2022-08-11T13:03:28;29.10;56.30
37268;DHT22;23154;52.542;13.362;2022-08-11T13:06:14;29.30;55.80
37268;DHT22;23154;52.542;13.362;2022-08-11T13:08:43;29.40;56.40
37268;DHT22;23154;52.542;13.362;2022-08-11T13:11:09;29.30;55.40
37268;DHT22;23154;52.542;13.362;2022-08-11T13:13:54;29.00;55.60
37268;DHT22;23154;52.542;13.362;2022-08-11T13:16:31;29.10;56.90
37268;DHT22;23154;52.542;13.362;2022-08-11T13:19:17;29.00;56.50
37268;DHT22;23154;52.542;13.362;2022-08-11T13:21:45;29.20;56.60
37268;DHT22;23154;52.542;13.362;2022-08-11T13:24:11;29.40;56.70
37268;DHT22;23154;52.542;13.362;2022-08-11T13:26:37;29.40;57.20
37268;DHT22;23154;52.542;13.362;2022-08-11T13:29:03;29.50;55.00
37268;DHT22;23154;52.542;13.362;2022-08-11T13:31:29;29.30;54.60
37268;DHT22;23154;52.542;13.362;2022-08-11T13:33:57;29.10;54.60
37268;DHT22;23154;52.542;13.362;2022-08-11T13:36:23;29.20;54.20
37268;DHT22;23154;52.542;13.362;2022-08-11T13:38:54;29.10;54.10
37268;DHT22;23154;52.542;13.362;2022-08-11T13:41:20;29.20;54.50
37268;DHT22;23154;52.542;13.362;2022-08-11T13:44:08;29.00;55.00
37268;DHT22;23154;52.542;13.362;2022-08-11T13:46:34;29.00;55.30
37268;DHT22;23154;52.542;13.362;2022-08-11T13:49:01;29.10;53.40
37268;DHT22;23154;52.542;13.362;2022-08-11T13:51:27;29.10;53.40
37268;DHT22;23154;52.542;13.362;2022-08-11T13:56:25;29.60;53.00
37268;DHT22;23154;52.542;13.362;2022-08-11T13:58:53;29.70;54.00
37268;DHT22;23154;52.542;13.362;2022-08-11T14:01:19;29.70;53.50
37268;DHT22;23154;52.542;13.362;2022-08-11T14:03:46;29.70;53.70
37268;DHT22;23154;52.542;13.362;2022-08-11T14:06:14;29.80;53.70
37268;DHT22;23154;52.542;13.362;2022-08-11T14:08:42;29.70;52.70
37268;DHT22;23154;52.542;13.362;2022-08-11T14:11:08;29.70;52.50
37268;DHT22;23154;52.542;13.362;2022-08-11T14:13:54;30.00;52.10
37268;DHT22;23154;52.542;13.362;2022-08-11T14:16:29;30.50;51.40
37268;DHT22;23154;52.542;13.362;2022-08-11T14:19:00;31.00;50.60
37268;DHT22;23154;52.542;13.362;2022-08-11T14:21:30;30.80;50.30
37268;DHT22;23154;52.542;13.362;2022-08-11T14:24:17;31.10;50.30
37268;DHT22;23154;52.542;13.362;2022-08-11T14:26:43;30.90;49.50
37268;DHT22;23154;52.542;13.362;2022-08-11T14:29:16;30.70;49.60
37268;DHT22;23154;52.542;13.362;2022-08-11T14:31:55;30.70;49.30
37268;DHT22;23154;52.542;13.362;2022-08-11T14:34:24;30.30;49.50
37268;DHT22;23154;52.542;13.362;2022-08-11T14:36:52;30.90;49.00
37268;DHT22;23154;52.542;13.362;2022-08-11T14:39:22;31.70;48.10
37268;DHT22;23154;52.542;13.362;2022-08-11T14:41:54;32.00;47.20
37268;DHT22;23154;52.542;13.362;2022-08-11T14:44:44;32.50;47.20
37268;DHT22;23154;52.542;13.362;2022-08-11T14:47:34;32.40;47.10
37268;DHT22;23154;52.542;13.362;2022-08-11T14:50:02;33.20;46.60
37268;DHT22;23154;52.542;13.362;2022-08-11T14:52:32;33.10;45.10
37268;DHT22;23154;52.542;13.362;2022-08-11T14:55:03;32.20;45.40
37268;DHT22;23154;52.542;13.362;2022-08-11T14:57:48;32.30;44.60
37268;DHT22;23154;52.542;13.362;2022-08-11T15:00:15;32.00;45.10
37268;DHT22;23154;52.542;13.362;2022-08-11T15:02:44;32.80;45.00
37268;DHT22;23154;52.542;13.362;2022-08-11T15:05:29;33.80;43.70
37268;DHT22;23154;52.542;13.362;2022-08-11T15:07:56;34.00;42.60
37268;DHT22;23154;52.542;13.362;2022-08-11T15:10:23;34.10;42.60
37268;DHT22;23154;52.542;13.362;2022-08-11T15:12:50;34.20;41.80
37268;DHT22;23154;52.542;13.362;2022-08-11T15:15:16;34.00;42.20
37268;DHT22;23154;52.542;13.362;2022-08-11T15:18:04;33.80;42.10
37268;DHT22;23154;52.542;13.362;2022-08-11T15:20:31;33.40;42.10
37268;DHT22;23154;52.542;13.362;2022-08-11T15:23:15;33.70;42.30
37268;DHT22;23154;52.542;13.362;2022-08-11T15:26:18;33.70;41.70
37268;DHT22;23154;52.542;13.362;2022-08-11T15:28:48;33.00;42.40
37268;DHT22;23154;52.542;13.362;2022-08-11T15:31:33;34.10;42.30
37268;DHT22;23154;52.542;13.362;2022-08-11T15:34:21;34.20;41.30
37268;DHT22;23154;52.542;13.362;2022-08-11T15:37:09;34.20;41.20
37268;DHT22;23154;52.542;13.362;2022-08-11T15:42:57;34.00;40.00
37268;DHT22;23154;52.542;13.362;2022-08-11T15:45:44;34.20;40.40
37268;DHT22;23154;52.542;13.362;2022-08-11T15:48:29;33.30;40.60
37268;DHT22;23154;52.542;13.362;2022-08-11T15:51:08;32.90;41.90
37268;DHT22;23154;52.542;13.362;2022-08-11T15:53:58;32.40;44.40
37268;DHT22;23154;52.542;13.362;2022-08-11T15:56:28;32.40;42.90
37268;DHT22;23154;52.542;13.362;2022-08-11T15:58:57;32.70;42.70
37268;DHT22;23154;52.542;13.362;2022-08-11T16:01:43;32.60;42.00
37268;DHT22;23154;52.542;13.362;2022-08-11T16:04:29;32.40;42.70
37268;DHT22;23154;52.542;13.362;2022-08-11T16:07:09;32.40;42.70
37268;DHT22;23154;52.542;13.362;2022-08-11T16:12:19;31.50;44.50
37268;DHT22;23154;52.542;13.362;2022-08-11T16:14:48;30.90;44.50
37268;DHT22;23154;52.542;13.362;2022-08-11T16:17:43;30.50;45.80
37268;DHT22;23154;52.542;13.362;2022-08-11T16:20:11;30.30;45.80
37268;DHT22;23154;52.542;13.362;2022-08-11T16:22:38;30.20;46.00
37268;DHT22;23154;52.542;13.362;2022-08-11T16:25:18;30.20;46.40
37268;DHT22;23154;52.542;13.362;2022-08-11T16:27:50;30.20;46.00
37268;DHT22;23154;52.542;13.362;2022-08-11T16:30:17;30.30;46.40
37268;DHT22;23154;52.542;13.362;2022-08-11T16:32:45;30.20;46.30
37268;DHT22;23154;52.542;13.362;2022-08-11T16:35:16;30.10;46.40
37268;DHT22;23154;52.542;13.362;2022-08-11T16:38:19;30.20;46.50
37268;DHT22;23154;52.542;13.362;2022-08-11T16:41:12;30.20;46.30
37268;DHT22;23154;52.542;13.362;2022-08-11T16:43:48;30.10;46.10
37268;DHT22;23154;52.542;13.362;2022-08-11T16:46:33;30.10;45.90
37268;DHT22;23154;52.542;13.362;2022-08-11T16:49:26;30.20;45.40
37268;DHT22;23154;52.542;13.362;2022-08-11T16:51:53;30.50;45.00
37268;DHT22;23154;52.542;13.362;2022-08-11T16:54:19;31.10;44.30
37268;DHT22;23154;52.542;13.362;2022-08-11T16:56:48;32.00;42.80
37268;DHT22;23154;52.542;13.362;2022-08-11T16:59:25;32.40;41.70
37268;DHT22;23154;52.542;13.362;2022-08-11T17:02:08;32.90;41.60
37268;DHT22;23154;52.542;13.362;2022-08-11T17:04:49;32.40;41.60
37268;DHT22;23154;52.542;13.362;2022-08-11T17:07:37;32.30;42.40
37268;DHT22;23154;52.542;13.362;2022-08-11T17:10:29;32.30;42.40
37268;DHT22;23154;52.542;13.362;2022-08-11T17:13:21;32.30;42.90
37268;DHT22;23154;52.542;13.362;2022-08-11T17:15:49;32.50;42.60
37268;DHT22;23154;52.542;13.362;2022-08-11T17:18:47;32.70;41.70
37268;DHT22;23154;52.542;13.362;2022-08-11T17:23:54;32.70;41.50
37268;DHT22;23154;52.542;13.362;2022-08-11T17:26:49;33.20;41.00
37268;DHT22;23154;52.542;13.362;2022-08-11T17:29:33;33.00;39.90
37268;DHT22;23154;52.542;13.362;2022-08-11T17:32:03;33.10;40.80
37268;DHT22;23154;52.542;13.362;2022-08-11T17:34:48;33.10;40.60
37268;DHT22;23154;52.542;13.362;2022-08-11T17:37:35;32.40;41.30
37268;DHT22;23154;52.542;13.362;2022-08-11T17:40:07;32.80;41.30
37268;DHT22;23154;52.542;13.362;2022-08-11T17:42:34;33.30;41.40
37268;DHT22;23154;52.542;13.362;2022-08-11T17:45:21;32.70;40.90
37268;DHT22;23154;52.542;13.362;2022-08-11T17:48:06;31.90;41.10
37268;DHT22;23154;52.542;13.362;2022-08-11T17:51:00;32.00;42.10
37268;DHT22;23154;52.542;13.362;2022-08-11T17:53:31;32.10;42.50
37268;DHT22;23154;52.542;13.362;2022-08-11T17:56:25;31.80;42.30
37268;DHT22;23154;52.542;13.362;2022-08-11T17:59:11;31.60;42.10
37268;DHT22;23154;52.542;13.362;2022-08-11T18:01:58;31.00;42.70
37268;DHT22;23154;52.542;13.362;2022-08-11T18:04:47;31.10;43.60
37268;DHT22;23154;52.542;13.362;2022-08-11T18:07:15;30.80;43.90
37268;DHT22;23154;52.542;13.362;2022-08-11T18:10:03;30.60;44.00
37268;DHT22;23154;52.542;13.362;2022-08-11T18:12:50;30.30;44.70
37268;DHT22;23154;52.542;13.362;2022-08-11T18:15:37;29.90;45.30
37268;DHT22;23154;52.542;13.362;2022-08-11T18:18:22;29.50;45.70
37268;DHT22;23154;52.542;13.362;2022-08-11T18:21:06;28.90;46.50
37268;DHT22;23154;52.542;13.362;2022-08-11T18:23:52;28.70;47.90
37268;DHT22;23154;52.542;13.362;2022-08-11T18:26:39;28.40;48.30
37268;DHT22;23154;52.542;13.362;2022-08-11T18:29:26;27.90;48.70
37268;DHT22;23154;52.542;13.362;2022-08-11T18:32:14;27.50;49.60
37268;DHT22;23154;52.542;13.362;2022-08-11T18:35:01;27.20;51.20
37268;DHT22;23154;52.542;13.362;2022-08-11T18:37:48;27.00;50.70
37268;DHT22;23154;52.542;13.362;2022-08-11T18:40:34;26.80;51.40
37268;DHT22;23154;52.542;13.362;2022-08-11T18:43:20;26.60;51.40
37268;DHT22;23154;52.542;13.362;2022-08-11T18:46:07;26.40;52.60
37268;DHT22;23154;52.542;13.362;2022-08-11T18:48:58;26.20;53.00
37268;DHT22;23154;52.542;13.362;2022-08-11T18:51:47;26.10;52.30
37268;DHT22;23154;52.542;13.362;2022-08-11T18:54:35;25.90;53.40
37268;DHT22;23154;52.542;13.362;2022-08-11T18:57:21;25.80;53.30
37268;DHT22;23154;52.542;13.362;2022-08-11T19:00:07;25.50;54.20
37268;DHT22;23154;52.542;13.362;2022-08-11T19:02:51;25.30;55.50
37268;DHT22;23154;52.542;13.362;2022-08-11T19:05:39;25.10;56.70
37268;DHT22;23154;52.542;13.362;2022-08-11T19:09:01;25.00;55.80
37268;DHT22;23154;52.542;13.362;2022-08-11T19:11:46;24.90;56.30
37268;DHT22;23154;52.542;13.362;2022-08-11T19:14:31;24.80;55.90
37268;DHT22;23154;52.542;13.362;2022-08-11T19:17:19;24.80;56.40
37268;DHT22;23154;52.542;13.362;2022-08-11T19:20:05;24.70;56.80
37268;DHT22;23154;52.542;13.362;2022-08-11T19:22:51;24.50;57.90
37268;DHT22;23154;52.542;13.362;2022-08-11T19:25:38;24.30;58.00
37268;DHT22;23154;52.542;13.362;2022-08-11T19:28:24;24.30;57.80
37268;DHT22;23154;52.542;13.362;2022-08-11T19:31:09;24.40;57.60
37268;DHT22;23154;52.542;13.362;2022-08-11T19:33:55;24.40;57.90
37268;DHT22;23154;52.542;13.362;2022-08-11T19:36:41;24.20;58.10
37268;DHT22;23154;52.542;13.362;2022-08-11T19:39:26;24.10;58.30
37268;DHT22;23154;52.542;13.362;2022-08-11T19:42:12;24.20;58.60
37268;DHT22;23154;52.542;13.362;2022-08-11T19:44:59;24.10;59.00
37268;DHT22;23154;52.542;13.362;2022-08-11T19:47:46;24.10;58.90
37268;DHT22;23154;52.542;13.362;2022-08-11T19:50:35;24.20;58.90
37268;DHT22;23154;52.542;13.362;2022-08-11T19:53:21;23.90;59.30
37268;DHT22;23154;52.542;13.362;2022-08-11T19:56:06;23.90;59.70
37268;DHT22;23154;52.542;13.362;2022-08-11T19:58:53;23.80;60.10
37268;DHT22;23154;52.542;13.362;2022-08-11T20:01:38;23.70;60.50
37268;DHT22;23154;52.542;13.362;2022-08-11T20:04:23;23.60;60.80
37268;DHT22;23154;52.542;13.362;2022-08-11T20:07:07;23.60;60.60
37268;DHT22;23154;52.542;13.362;2022-08-11T20:09:52;23.50;61.10